createdAt,value
2023-08-06T00:01:10.883Z,7.87
2023-08-06T00:03:37.502Z,7.95
2023-08-06T00:06:07.200Z,8.28
2023-08-06T00:08:33.812Z,8.43
2023-08-06T00:11:00.430Z,7.86
2023-08-06T00:13:27.064Z,8.14
2023-08-06T00:15:53.678Z,7.88
2023-08-06T00:18:20.297Z,8.29
2023-08-06T00:20:46.941Z,8.13
2023-08-06T00:23:13.603Z,8.20
2023-08-06T00:25:40.227Z,8.22
2023-08-06T00:28:06.858Z,7.87
2023-08-06T00:30:33.445Z,7.92
2023-08-06T00:33:00.092Z,7.65
2023-08-06T00:35:26.809Z,7.71
2023-08-06T00:37:55.864Z,7.99
2023-08-06T00:40:25.238Z,8.13
2023-08-06T00:42:51.908Z,7.80
2023-08-06T00:45:18.705Z,8.18
2023-08-06T00:47:46.987Z,8.16
2023-08-06T00:50:13.732Z,8.01
2023-08-06T00:52:41.407Z,8.09
2023-08-06T00:55:08.587Z,7.89
2023-08-06T00:57:35.422Z,8.07
2023-08-06T01:00:03.028Z,8.13
2023-08-06T01:02:30.128Z,8.17
2023-08-06T01:04:56.825Z,8.73
2023-08-06T01:07:57.258Z,8.63
2023-08-06T01:10:51.504Z,8.17
2023-08-06T01:13:28.656Z,8.33
2023-08-06T01:16:03.190Z,8.84
2023-08-06T01:18:31.188Z,8.86
2023-08-06T01:20:59.068Z,8.93
2023-08-06T01:23:26.480Z,9.02
2023-08-06T01:26:01.897Z,9.16
2023-08-06T01:28:47.713Z,8.99
2023-08-06T01:31:25.389Z,9.10
2023-08-06T01:33:55.057Z,9.15
2023-08-06T01:36:23.113Z,9.20
2023-08-06T01:38:51.800Z,9.08
2023-08-06T01:41:18.416Z,9.19
2023-08-06T01:43:45.386Z,9.00
2023-08-06T01:46:12.054Z,9.73
2023-08-06T01:48:38.784Z,9.54
2023-08-06T01:51:06.833Z,9.28
2023-08-06T01:53:34.281Z,9.85
2023-08-06T01:56:01.034Z,10.21
2023-08-06T01:58:27.659Z,10.29
2023-08-06T02:00:54.364Z,10.04
2023-08-06T02:03:20.950Z,10.49
2023-08-06T02:05:47.664Z,10.75
2023-08-06T02:08:14.273Z,10.52
2023-08-06T02:10:40.989Z,11.08
2023-08-06T02:13:07.625Z,11.13
2023-08-06T02:15:34.244Z,11.75
2023-08-06T02:18:00.942Z,11.55
2023-08-06T02:20:27.693Z,11.98
2023-08-06T02:22:54.376Z,12.24
2023-08-06T02:25:21.006Z,12.45
2023-08-06T02:27:47.672Z,12.55
2023-08-06T02:30:14.355Z,12.69
2023-08-06T02:32:40.964Z,12.89
2023-08-06T02:35:07.891Z,12.59
2023-08-06T02:37:35.656Z,12.96
2023-08-06T02:40:03.163Z,12.80
2023-08-06T02:42:29.917Z,12.51
2023-08-06T02:44:56.538Z,12.18
2023-08-06T02:47:23.394Z,11.51
2023-08-06T02:49:50.333Z,11.73
2023-08-06T02:52:17.000Z,11.66
2023-08-06T02:54:43.936Z,11.57
2023-08-06T02:57:10.696Z,11.61
2023-08-06T02:59:37.327Z,11.10
2023-08-06T03:02:04.039Z,10.88
2023-08-06T03:04:30.705Z,10.32
2023-08-06T03:06:57.434Z,10.74
2023-08-06T03:09:24.111Z,10.71
2023-08-06T03:11:51.238Z,10.54
2023-08-06T03:14:18.097Z,9.97
2023-08-06T03:16:44.715Z,9.88
2023-08-06T03:19:11.320Z,9.84
2023-08-06T03:21:38.037Z,9.98
2023-08-06T03:24:04.726Z,9.95
2023-08-06T03:26:31.336Z,9.91
2023-08-06T03:28:57.918Z,9.73
2023-08-06T03:31:24.678Z,9.70
2023-08-06T03:33:51.391Z,10.17
2023-08-06T03:36:18.012Z,9.87
2023-08-06T03:38:44.739Z,9.92
2023-08-06T03:41:11.376Z,10.17
2023-08-06T03:43:38.026Z,10.33
2023-08-06T03:46:04.737Z,10.41
2023-08-06T03:48:31.356Z,10.76
2023-08-06T03:50:58.544Z,10.78
2023-08-06T03:53:25.156Z,10.66
2023-08-06T03:55:51.854Z,11.22
2023-08-06T03:58:18.495Z,11.52
2023-08-06T04:00:45.208Z,11.48
2023-08-06T04:03:11.958Z,11.81
2023-08-06T04:05:38.652Z,12.61
2023-08-06T04:08:05.284Z,12.53
2023-08-06T04:10:32.066Z,12.51
2023-08-06T04:12:58.700Z,12.60
2023-08-06T04:15:25.318Z,12.80
2023-08-06T04:17:52.024Z,12.88
2023-08-06T04:20:18.713Z,12.69
2023-08-06T04:22:45.337Z,13.00
2023-08-06T04:25:11.991Z,13.80
2023-08-06T04:27:42.379Z,14.30
2023-08-06T04:30:10.452Z,15.04
2023-08-06T04:32:37.252Z,16.19
2023-08-06T04:35:04.115Z,15.88
2023-08-06T04:37:30.723Z,15.83
2023-08-06T04:39:57.410Z,15.67
2023-08-06T04:42:24.059Z,15.71
2023-08-06T04:44:51.675Z,15.57
2023-08-06T04:47:18.700Z,16.20
2023-08-06T04:49:45.446Z,16.86
2023-08-06T04:52:12.144Z,16.82
2023-08-06T04:54:38.840Z,16.93
2023-08-06T04:57:05.925Z,17.09
2023-08-06T04:59:32.553Z,16.81
2023-08-06T05:01:59.225Z,17.26
2023-08-06T05:04:25.913Z,17.44
2023-08-06T05:06:52.593Z,17.08
2023-08-06T05:09:19.217Z,18.40
2023-08-06T05:11:45.850Z,17.69
2023-08-06T05:14:12.500Z,17.56
2023-08-06T05:16:39.189Z,17.20
2023-08-06T05:19:05.868Z,18.01
2023-08-06T05:21:32.511Z,18.09
2023-08-06T05:23:59.159Z,17.87
2023-08-06T05:26:25.797Z,18.37
2023-08-06T05:28:52.425Z,18.21
2023-08-06T05:31:19.072Z,18.07
2023-08-06T05:33:45.767Z,19.26
2023-08-06T05:36:12.432Z,19.28
2023-08-06T05:38:39.046Z,19.11
2023-08-06T05:41:05.640Z,20.16
2023-08-06T05:43:32.358Z,20.65
2023-08-06T05:45:59.028Z,20.07
2023-08-06T05:48:26.108Z,19.78
2023-08-06T05:50:53.492Z,19.20
2023-08-06T05:53:20.149Z,19.51
2023-08-06T05:55:46.875Z,18.92
2023-08-06T05:58:13.534Z,18.91
2023-08-06T06:00:40.205Z,18.87
2023-08-06T06:03:06.851Z,19.45
2023-08-06T06:05:33.484Z,19.23
2023-08-06T06:08:00.180Z,18.53
2023-08-06T06:10:26.836Z,18.25
2023-08-06T06:12:53.462Z,18.86
2023-08-06T06:15:20.186Z,18.69
2023-08-06T06:17:46.895Z,18.13
2023-08-06T06:20:13.796Z,18.55
2023-08-06T06:22:40.425Z,19.13
2023-08-06T06:25:07.546Z,18.84
2023-08-06T06:27:34.177Z,19.45
2023-08-06T06:30:00.794Z,19.15
2023-08-06T06:32:27.492Z,19.09
2023-08-06T06:34:55.483Z,19.16
2023-08-06T06:37:22.166Z,18.91
2023-08-06T06:39:48.835Z,18.92
2023-08-06T06:42:16.304Z,19.13
2023-08-06T06:44:43.164Z,19.51
2023-08-06T06:47:09.837Z,19.24
2023-08-06T06:49:36.453Z,19.48
2023-08-06T06:52:03.299Z,18.47
2023-08-06T06:54:29.953Z,19.09
2023-08-06T06:56:56.564Z,18.87
2023-08-06T06:59:23.151Z,17.78
2023-08-06T07:01:49.770Z,17.84
2023-08-06T07:04:16.429Z,17.03
2023-08-06T07:06:43.077Z,17.06
2023-08-06T07:09:09.695Z,16.49
2023-08-06T07:11:36.340Z,15.91
2023-08-06T07:14:02.987Z,16.02
2023-08-06T07:16:30.419Z,15.92
2023-08-06T07:18:57.351Z,16.62
2023-08-06T07:21:24.086Z,16.58
2023-08-06T07:23:50.972Z,16.37
2023-08-06T07:26:18.324Z,16.47
2023-08-06T07:28:45.697Z,17.16
2023-08-06T07:31:12.942Z,17.19
2023-08-06T07:33:39.759Z,17.18
2023-08-06T07:36:14.593Z,16.70
2023-08-06T07:38:42.102Z,16.05
2023-08-06T07:41:09.820Z,16.65
2023-08-06T07:43:36.996Z,16.99
2023-08-06T07:46:04.238Z,16.60
2023-08-06T07:48:31.164Z,16.93
2023-08-06T07:50:58.499Z,17.50
2023-08-06T07:53:30.713Z,16.94
2023-08-06T07:55:58.228Z,16.73
2023-08-06T07:58:26.433Z,17.61
2023-08-06T08:00:53.161Z,16.74
2023-08-06T08:03:20.943Z,18.00
2023-08-06T08:05:47.956Z,16.67
2023-08-06T08:08:14.715Z,16.55
2023-08-06T08:10:41.478Z,16.26
2023-08-06T08:13:08.180Z,15.98
2023-08-06T08:15:35.746Z,16.16
2023-08-06T08:18:02.540Z,12.81
2023-08-06T08:20:32.881Z,8.74
2023-08-06T08:23:01.438Z,6.68
2023-08-06T08:25:31.281Z,5.93
2023-08-06T08:27:58.788Z,5.08
2023-08-06T08:30:26.365Z,4.17
2023-08-06T08:32:53.628Z,3.68
2023-08-06T08:35:20.552Z,3.88
2023-08-06T08:37:47.271Z,3.66
2023-08-06T08:40:15.589Z,3.33
2023-08-06T08:42:43.177Z,3.05
2023-08-06T08:45:17.374Z,2.80
2023-08-06T08:47:44.583Z,2.66
2023-08-06T08:50:12.323Z,2.64
2023-08-06T08:52:40.589Z,2.57
2023-08-06T08:55:09.252Z,2.38
2023-08-06T08:57:35.978Z,2.37
2023-08-06T09:00:02.764Z,2.12
2023-08-06T09:02:31.613Z,2.25
2023-08-06T09:05:02.969Z,2.22
2023-08-06T09:07:35.975Z,2.36
2023-08-06T09:10:07.260Z,2.40
2023-08-06T09:12:34.032Z,2.48
2023-08-06T09:15:00.714Z,2.58
2023-08-06T09:17:27.351Z,2.54
2023-08-06T09:19:54.074Z,2.62
2023-08-06T09:22:20.799Z,2.94
2023-08-06T09:24:47.654Z,2.96
2023-08-06T09:27:17.888Z,3.13
2023-08-06T09:29:46.326Z,3.07
2023-08-06T09:32:14.030Z,2.86
2023-08-06T09:34:42.973Z,2.98
2023-08-06T09:37:13.870Z,2.99
2023-08-06T09:39:42.440Z,3.03
2023-08-06T09:42:09.279Z,3.32
2023-08-06T09:44:36.207Z,3.41
2023-08-06T09:47:04.769Z,3.49
2023-08-06T09:49:34.177Z,3.32
2023-08-06T09:52:01.663Z,3.51
2023-08-06T09:54:29.823Z,3.70
2023-08-06T09:56:57.869Z,3.80
2023-08-06T09:59:25.634Z,4.21
2023-08-06T10:01:53.374Z,4.14
2023-08-06T10:04:24.992Z,4.27
2023-08-06T10:06:53.902Z,4.37
2023-08-06T10:09:21.405Z,4.43
2023-08-06T10:11:54.022Z,4.48
2023-08-06T10:14:35.703Z,4.78
2023-08-06T10:17:03.608Z,4.89
2023-08-06T10:19:32.529Z,4.76
2023-08-06T10:22:15.729Z,5.07
2023-08-06T10:25:05.762Z,5.54
2023-08-06T10:27:40.888Z,5.15
2023-08-06T10:30:23.611Z,5.05
2023-08-06T10:32:55.273Z,5.06
2023-08-06T10:35:40.602Z,5.28
2023-08-06T10:38:19.216Z,5.26
2023-08-06T10:40:54.972Z,5.83
2023-08-06T10:43:33.543Z,5.55
2023-08-06T10:46:02.492Z,5.43
2023-08-06T10:48:38.736Z,5.32
2023-08-06T10:51:10.523Z,5.25
2023-08-06T10:53:37.677Z,5.01
2023-08-06T10:56:15.153Z,4.78
2023-08-06T10:58:42.489Z,4.57
2023-08-06T11:01:10.106Z,4.42
2023-08-06T11:03:37.769Z,4.20
2023-08-06T11:06:06.105Z,3.84
2023-08-06T11:08:37.414Z,3.53
2023-08-06T11:11:15.245Z,3.92
2023-08-06T11:13:47.491Z,3.34
2023-08-06T11:16:17.912Z,3.69
2023-08-06T11:18:44.994Z,3.65
2023-08-06T11:21:15.127Z,3.98
2023-08-06T11:23:42.327Z,3.65
2023-08-06T11:26:09.278Z,3.51
2023-08-06T11:28:36.250Z,3.44
2023-08-06T11:31:04.960Z,3.60
2023-08-06T11:33:32.291Z,3.24
2023-08-06T11:36:00.895Z,3.01
2023-08-06T11:38:30.750Z,2.88
2023-08-06T11:40:57.906Z,2.94
2023-08-06T11:43:24.538Z,3.20
2023-08-06T11:45:52.051Z,3.08
2023-08-06T11:48:19.406Z,3.10
2023-08-06T11:50:46.739Z,3.33
2023-08-06T11:53:16.640Z,3.33
2023-08-06T11:55:44.079Z,3.09
2023-08-06T11:58:15.752Z,3.01
2023-08-06T12:00:43.642Z,2.83
2023-08-06T12:03:11.039Z,2.84
2023-08-06T12:05:39.864Z,2.72
2023-08-06T12:08:06.566Z,2.86
2023-08-06T12:10:34.307Z,2.83
2023-08-06T12:13:01.804Z,2.68
2023-08-06T12:15:29.610Z,2.59
2023-08-06T12:17:57.365Z,2.41
2023-08-06T12:20:24.157Z,2.30
2023-08-06T12:22:50.864Z,2.14
2023-08-06T12:25:17.941Z,2.08
2023-08-06T12:27:46.796Z,2.13
2023-08-06T12:30:14.374Z,2.02
2023-08-06T12:32:41.292Z,1.82
2023-08-06T12:35:08.984Z,1.92
2023-08-06T12:37:36.551Z,1.91
2023-08-06T12:40:23.521Z,2.15
2023-08-06T12:42:53.929Z,1.83
2023-08-06T12:45:22.453Z,2.01
2023-08-06T12:47:50.688Z,2.00
2023-08-06T12:50:18.470Z,1.77
2023-08-06T12:52:45.398Z,2.14
2023-08-06T12:55:12.098Z,1.90
2023-08-06T12:57:55.513Z,2.05
2023-08-06T13:00:24.028Z,2.12
2023-08-06T13:02:51.003Z,2.06
2023-08-06T13:05:17.835Z,2.31
2023-08-06T13:07:44.718Z,2.29
2023-08-06T13:10:11.439Z,2.31
2023-08-06T13:12:38.098Z,2.37
2023-08-06T13:15:05.301Z,2.46
2023-08-06T13:17:32.076Z,2.43
2023-08-06T13:19:58.844Z,2.19
2023-08-06T13:22:25.516Z,2.30
2023-08-06T13:24:52.181Z,2.20
2023-08-06T13:27:18.824Z,2.34
2023-08-06T13:29:45.485Z,2.38
2023-08-06T13:32:12.150Z,2.24
2023-08-06T13:34:38.772Z,2.44
2023-08-06T13:37:05.624Z,2.65
2023-08-06T13:39:32.326Z,2.51
2023-08-06T13:41:59.020Z,2.70
2023-08-06T13:44:25.675Z,2.60
2023-08-06T13:46:52.571Z,2.55
2023-08-06T13:49:19.499Z,2.58
2023-08-06T13:51:46.143Z,2.55
2023-08-06T13:54:12.796Z,2.51
2023-08-06T13:56:39.537Z,2.61
2023-08-06T13:59:06.571Z,2.64
2023-08-06T14:01:47.309Z,2.53
2023-08-06T14:04:16.376Z,2.49
2023-08-06T14:06:43.146Z,2.60
2023-08-06T14:09:09.847Z,2.27
2023-08-06T14:11:36.606Z,2.28
2023-08-06T14:14:04.493Z,2.28
2023-08-06T14:16:31.433Z,2.65
2023-08-06T14:18:58.088Z,2.45
2023-08-06T14:21:24.766Z,2.64
2023-08-06T14:23:51.523Z,2.89
2023-08-06T14:26:18.335Z,2.76
2023-08-06T14:28:45.109Z,2.62
2023-08-06T14:31:12.911Z,2.92
2023-08-06T14:33:39.685Z,2.80
2023-08-06T14:36:06.713Z,2.82
2023-08-06T14:38:36.721Z,2.65
2023-08-06T14:41:07.689Z,2.74
2023-08-06T14:43:34.458Z,2.68
2023-08-06T14:46:01.204Z,2.64
2023-08-06T14:48:28.014Z,3.11
2023-08-06T14:50:55.585Z,2.79
2023-08-06T14:53:22.292Z,2.73
2023-08-06T14:55:49.109Z,2.40
2023-08-06T14:58:15.940Z,2.43
2023-08-06T15:00:42.926Z,2.34
2023-08-06T15:03:09.607Z,2.24
2023-08-06T15:05:36.227Z,2.72
2023-08-06T15:08:03.002Z,2.46
2023-08-06T15:10:29.610Z,2.59
2023-08-06T15:12:56.457Z,2.37
2023-08-06T15:15:23.652Z,2.10
2023-08-06T15:17:50.738Z,2.08
2023-08-06T15:20:17.501Z,2.09
2023-08-06T15:22:44.209Z,1.84
2023-08-06T15:25:10.920Z,1.62
2023-08-06T15:27:37.712Z,1.50
2023-08-06T15:30:05.547Z,1.74
2023-08-06T15:32:32.350Z,1.70
2023-08-06T15:34:59.253Z,1.69
2023-08-06T15:37:26.008Z,1.58
2023-08-06T15:39:53.374Z,1.31
2023-08-06T15:42:20.037Z,1.56
2023-08-06T15:44:46.766Z,1.27
2023-08-06T15:47:14.324Z,1.47
2023-08-06T15:49:41.075Z,1.57
2023-08-06T15:52:07.896Z,1.63
2023-08-06T15:54:34.682Z,1.51
2023-08-06T15:57:01.362Z,1.65
2023-08-06T15:59:32.285Z,1.54
2023-08-06T16:02:00.708Z,2.12
2023-08-06T16:04:27.938Z,2.09
2023-08-06T16:06:55.122Z,2.50
2023-08-06T16:09:23.911Z,1.78
2023-08-06T16:11:53.972Z,2.21
2023-08-06T16:14:21.606Z,2.18
2023-08-06T16:16:48.640Z,2.77
2023-08-06T16:19:15.548Z,2.85
2023-08-06T16:21:42.358Z,3.11
2023-08-06T16:24:10.096Z,2.29
2023-08-06T16:26:37.430Z,2.48
2023-08-06T16:29:04.428Z,2.70
2023-08-06T16:31:31.247Z,2.64
2023-08-06T16:33:58.020Z,2.37
2023-08-06T16:36:25.962Z,2.29
2023-08-06T16:38:52.781Z,2.55
2023-08-06T16:41:19.723Z,2.47
2023-08-06T16:43:46.477Z,3.19
2023-08-06T16:46:13.415Z,2.39
2023-08-06T16:48:40.399Z,2.09
2023-08-06T16:51:07.044Z,2.62
2023-08-06T16:53:33.655Z,2.51
2023-08-06T16:56:00.293Z,2.22
2023-08-06T16:58:27.491Z,2.53
2023-08-06T17:00:56.696Z,2.98
2023-08-06T17:03:23.423Z,2.75
2023-08-06T17:05:50.352Z,3.43
2023-08-06T17:08:17.218Z,3.11
2023-08-06T17:10:43.938Z,2.99
2023-08-06T17:13:19.808Z,3.25
2023-08-06T17:15:48.771Z,2.33
2023-08-06T17:18:19.139Z,2.34
2023-08-06T17:20:47.382Z,2.36
2023-08-06T17:23:14.223Z,2.22
2023-08-06T17:25:41.826Z,1.86
2023-08-06T17:28:08.594Z,1.93
2023-08-06T17:30:35.365Z,2.14
2023-08-06T17:33:03.357Z,2.33
2023-08-06T17:35:31.138Z,2.39
2023-08-06T17:37:58.615Z,2.57
2023-08-06T17:40:25.476Z,2.76
2023-08-06T17:42:52.836Z,2.71
2023-08-06T17:45:20.122Z,2.55
2023-08-06T17:47:48.677Z,2.36
2023-08-06T17:50:15.842Z,2.70
2023-08-06T17:52:42.581Z,2.53
2023-08-06T17:55:09.758Z,2.50
2023-08-06T17:57:36.610Z,2.76
2023-08-06T18:00:04.149Z,2.77
2023-08-06T18:02:32.016Z,2.56
2023-08-06T18:04:58.733Z,2.29
2023-08-06T18:07:26.316Z,2.97
2023-08-06T18:09:53.058Z,2.88
2023-08-06T18:12:19.701Z,2.97
2023-08-06T18:14:46.340Z,3.04
2023-08-06T18:17:13.041Z,3.33
2023-08-06T18:19:39.687Z,3.19
2023-08-06T18:22:06.540Z,3.64
2023-08-06T18:24:33.211Z,3.16
2023-08-06T18:26:59.861Z,3.04
2023-08-06T18:29:26.510Z,2.82
2023-08-06T18:31:53.125Z,3.06
2023-08-06T18:34:19.810Z,2.75
2023-08-06T18:36:46.425Z,2.34
2023-08-06T18:39:13.169Z,2.74
2023-08-06T18:41:39.873Z,2.25
2023-08-06T18:44:06.537Z,2.65
2023-08-06T18:46:33.254Z,2.46
2023-08-06T18:48:59.983Z,2.27
2023-08-06T18:51:26.689Z,2.62
2023-08-06T18:53:53.326Z,2.63
2023-08-06T18:56:19.931Z,2.34
2023-08-06T18:58:46.552Z,2.21
2023-08-06T19:01:13.310Z,2.10
2023-08-06T19:03:40.170Z,2.36
2023-08-06T19:06:07.642Z,1.99
2023-08-06T19:08:34.433Z,1.64
2023-08-06T19:11:01.124Z,1.41
2023-08-06T19:13:27.817Z,1.74
2023-08-06T19:15:54.500Z,2.08
2023-08-06T19:18:21.257Z,2.09
2023-08-06T19:20:48.052Z,2.09
2023-08-06T19:23:20.093Z,2.30
2023-08-06T19:25:48.698Z,2.31
2023-08-06T19:28:20.336Z,1.98
2023-08-06T19:30:47.507Z,2.05
2023-08-06T19:33:16.985Z,2.11
2023-08-06T19:35:54.323Z,2.30
2023-08-06T19:38:25.293Z,2.65
2023-08-06T19:41:02.411Z,2.50
2023-08-06T19:43:29.716Z,2.12
2023-08-06T19:45:59.436Z,2.55
2023-08-06T19:48:26.318Z,2.55
2023-08-06T19:50:56.645Z,2.10
2023-08-06T19:53:23.533Z,2.25
2023-08-06T19:55:51.107Z,2.34
2023-08-06T19:58:18.076Z,2.17
2023-08-06T20:00:44.715Z,2.10
2023-08-06T20:03:11.547Z,1.92
2023-08-06T20:05:38.658Z,1.95
2023-08-06T20:08:05.433Z,2.31
2023-08-06T20:10:32.051Z,2.14
2023-08-06T20:12:58.680Z,2.07
2023-08-06T20:15:25.395Z,1.93
2023-08-06T20:17:52.113Z,1.91
2023-08-06T20:20:18.821Z,1.57
2023-08-06T20:22:45.524Z,1.55
2023-08-06T20:25:12.161Z,1.82
2023-08-06T20:27:38.819Z,1.76
2023-08-06T20:30:06.224Z,1.39
2023-08-06T20:32:32.833Z,1.50
2023-08-06T20:34:59.520Z,1.61
2023-08-06T20:37:26.446Z,1.52
2023-08-06T20:39:53.060Z,2.04
2023-08-06T20:42:19.674Z,2.15
2023-08-06T20:44:47.485Z,1.71
2023-08-06T20:47:14.808Z,1.75
2023-08-06T20:49:41.435Z,1.66
2023-08-06T20:52:08.273Z,1.79
2023-08-06T20:54:34.961Z,1.68
2023-08-06T20:57:01.685Z,1.70
2023-08-06T20:59:30.108Z,1.82
2023-08-06T21:01:58.038Z,2.19
2023-08-06T21:04:25.452Z,2.34
2023-08-06T21:06:52.156Z,2.06
2023-08-06T21:09:18.811Z,2.14
2023-08-06T21:11:45.464Z,2.14
2023-08-06T21:14:12.153Z,1.96
2023-08-06T21:16:40.528Z,1.73
2023-08-06T21:19:08.190Z,1.75
2023-08-06T21:21:34.894Z,2.12
2023-08-06T21:24:01.509Z,1.64
2023-08-06T21:26:28.161Z,1.69
2023-08-06T21:28:54.901Z,1.71
2023-08-06T21:31:21.586Z,2.09
2023-08-06T21:33:49.457Z,2.12
2023-08-06T21:36:18.431Z,2.40
2023-08-06T21:38:45.070Z,2.64
2023-08-06T21:41:14.150Z,2.36
2023-08-06T21:43:47.550Z,2.36
2023-08-06T21:46:19.083Z,2.68
2023-08-06T21:48:47.433Z,2.64
2023-08-06T21:51:16.284Z,2.73
2023-08-06T21:53:43.418Z,2.73
2023-08-06T21:56:12.122Z,2.43
2023-08-06T21:58:44.113Z,2.70
2023-08-06T22:01:12.847Z,2.76
2023-08-06T22:03:42.020Z,3.25
2023-08-06T22:06:10.676Z,3.08
2023-08-06T22:08:39.162Z,3.34
2023-08-06T22:11:06.672Z,3.27
2023-08-06T22:13:33.880Z,3.27
2023-08-06T22:16:00.835Z,3.23
2023-08-06T22:18:27.695Z,3.06
2023-08-06T22:20:58.059Z,3.70
2023-08-06T22:23:25.492Z,3.56
2023-08-06T22:25:53.174Z,4.07
2023-08-06T22:28:21.900Z,3.69
2023-08-06T22:30:48.968Z,4.23
2023-08-06T22:33:15.728Z,4.42
2023-08-06T22:35:42.456Z,4.36
2023-08-06T22:38:09.126Z,4.80
2023-08-06T22:40:36.448Z,3.96
2023-08-06T22:43:03.117Z,3.44
2023-08-06T22:45:29.868Z,3.61
2023-08-06T22:47:56.578Z,3.60
2023-08-06T22:50:23.297Z,4.15
2023-08-06T22:52:49.927Z,3.68
2023-08-06T22:55:40.750Z,3.66
2023-08-06T22:58:03.598Z,3.77
2023-08-06T23:00:30.308Z,3.78
2023-08-06T23:03:08.561Z,3.91
2023-08-06T23:05:37.238Z,3.90
2023-08-06T23:08:04.028Z,4.28
2023-08-06T23:10:30.696Z,3.82
2023-08-06T23:12:57.409Z,3.76
2023-08-06T23:15:24.075Z,3.32
2023-08-06T23:17:50.804Z,3.47
2023-08-06T23:20:17.607Z,3.76
2023-08-06T23:22:44.281Z,3.75
2023-08-06T23:25:10.900Z,3.26
2023-08-06T23:27:37.548Z,3.36
2023-08-06T23:30:05.103Z,3.71
2023-08-06T23:32:32.878Z,3.01
2023-08-06T23:34:59.610Z,3.35
2023-08-06T23:37:26.327Z,3.03
2023-08-06T23:39:56.074Z,2.96
2023-08-06T23:42:24.077Z,2.32
2023-08-06T23:44:51.753Z,2.23
2023-08-06T23:47:18.669Z,2.06
2023-08-06T23:49:45.936Z,2.00
2023-08-06T23:52:12.584Z,1.83
2023-08-06T23:54:40.988Z,2.41
2023-08-06T23:57:07.890Z,2.47
2023-08-06T23:59:34.606Z,2.24
